Time;durP1;ratioP1;P1;durP2;ratioP2;P2;SDS_P1;SDS_P2;PMS_P1;PMS_P2;Temp;Humidity;BMP_temperature;BMP_pressure;BME280_temperature;BME280_humidity;BME280_pressure;Samples;Min_cycle;Max_cycle;Signal;HPM_P1;HPM_P2
2023/01/30 00:01:33;;;;;;;12.00;8.93;;;;;;;2.26;80.90;100805.91;5019140;28;20170;-76
2023/01/30 00:04:07;;;;;;;10.52;7.80;;;;;;;2.33;80.71;100796.28;5036594;28;20269;-77
2023/01/30 00:06:38;;;;;;;16.05;10.00;;;;;;;2.36;80.71;100782.63;5019977;28;20205;-78
2023/01/30 00:09:13;;;;;;;13.48;8.63;;;;;;;2.28;80.75;100779.88;5032649;28;20174;-79
2023/01/30 00:11:43;;;;;;;10.20;8.65;;;;;;;2.30;80.65;100767.22;5024924;28;20174;-78
2023/01/30 00:14:13;;;;;;;12.60;8.43;;;;;;;2.40;80.83;100770.66;5027543;28;20210;-78
2023/01/30 00:16:43;;;;;;;13.65;8.88;;;;;;;2.38;80.45;100768.13;5026364;28;20186;-78
2023/01/30 00:19:14;;;;;;;13.45;10.10;;;;;;;2.41;80.20;100761.66;5006525;28;20205;-79
2023/01/30 00:21:44;;;;;;;17.55;10.75;;;;;;;2.42;80.07;100752.66;5005128;28;20194;-78
2023/01/30 00:24:13;;;;;;;17.27;9.77;;;;;;;2.48;80.32;100752.88;5019909;28;20206;-77
2023/01/30 00:26:43;;;;;;;14.63;9.30;;;;;;;2.43;80.33;100743.63;5018413;28;20284;-77
2023/01/30 00:29:14;;;;;;;14.80;9.18;;;;;;;2.31;79.98;100735.03;5000173;28;20289;-77
2023/01/30 00:31:44;;;;;;;13.85;8.80;;;;;;;2.32;80.54;100720.69;5018387;28;20544;-78
2023/01/30 00:34:16;;;;;;;16.40;11.48;;;;;;;2.41;80.47;100705.56;5000295;28;20332;-77
2023/01/30 00:36:46;;;;;;;11.32;8.45;;;;;;;2.39;80.15;100694.19;5018827;28;20627;-78
2023/01/30 00:39:35;;;;;;;15.85;10.18;;;;;;;2.29;80.82;100674.75;5017200;28;20209;-77
2023/01/30 00:47:42;;;;;;;13.80;9.55;;;;;;;2.31;80.55;100633.56;5033706;28;20171;-77
2023/01/30 00:50:14;;;;;;;16.15;10.60;;;;;;;2.28;80.87;100633.00;5030207;28;20192;-78
2023/01/30 00:52:45;;;;;;;19.45;11.65;;;;;;;2.29;81.05;100624.00;5010219;28;20190;-77
2023/01/30 00:55:15;;;;;;;18.88;11.43;;;;;;;2.26;80.80;100619.00;5009585;28;20218;-77
2023/01/30 00:57:46;;;;;;;15.98;9.20;;;;;;;2.29;80.74;100621.34;5011074;28;20217;-78
2023/01/30 01:00:19;;;;;;;14.15;9.57;;;;;;;2.34;80.81;100621.72;5003691;28;20193;-79
2023/01/30 01:02:49;;;;;;;14.48;10.05;;;;;;;2.44;80.79;100617.13;5003123;28;20653;-78
2023/01/30 01:05:20;;;;;;;13.68;10.20;;;;;;;2.36;80.53;100619.75;5002758;28;20318;-78
2023/01/30 01:07:50;;;;;;;19.02;11.40;;;;;;;2.31;80.62;100624.72;5023309;28;20177;-77
2023/01/30 01:10:21;;;;;;;14.07;10.25;;;;;;;2.29;80.82;100608.00;5025559;28;20246;-77
2023/01/30 01:12:52;;;;;;;16.55;10.18;;;;;;;2.26;80.72;100597.63;5025666;28;20166;-76
2023/01/30 01:15:23;;;;;;;15.00;9.98;;;;;;;2.19;81.11;100592.91;5025015;28;20249;-77
2023/01/30 01:17:53;;;;;;;19.40;10.77;;;;;;;2.25;80.91;100548.75;5009110;28;20220;-78
2023/01/30 01:20:25;;;;;;;20.52;12.40;;;;;;;2.25;80.88;100542.56;5009297;28;20190;-76
2023/01/30 01:22:55;;;;;;;14.75;10.68;;;;;;;2.19;80.89;100544.84;5028296;28;20174;-76
2023/01/30 01:25:26;;;;;;;23.42;13.48;;;;;;;2.17;81.32;100536.19;5026182;28;20385;-78
2023/01/30 01:27:56;;;;;;;18.13;10.18;;;;;;;2.25;81.10;100542.56;5027503;28;20178;-77
2023/01/30 01:30:26;;;;;;;21.40;11.10;;;;;;;2.26;81.09;100526.38;5029822;28;20175;-78
2023/01/30 01:32:57;;;;;;;16.25;10.45;;;;;;;2.29;81.08;100533.22;5020797;28;20189;-77
2023/01/30 01:35:30;;;;;;;16.40;11.70;;;;;;;2.19;80.98;100518.16;5020291;28;20278;-79
2023/01/30 01:38:02;;;;;;;16.10;9.98;;;;;;;2.28;81.03;100518.19;5022048;28;20261;-78
2023/01/30 01:43:20;;;;;;;22.52;12.15;;;;;;;2.26;81.21;100554.91;5004077;28;20210;-78
2023/01/30 01:45:57;;;;;;;18.25;10.63;;;;;;;2.22;81.22;100542.88;5003129;28;20211;-78
2023/01/30 01:48:30;;;;;;;17.63;12.35;;;;;;;2.24;80.92;100551.56;5018389;28;20174;-78
2023/01/30 01:51:05;;;;;;;17.42;11.25;;;;;;;2.27;81.20;100535.25;5021307;28;20175;-77
2023/01/30 01:53:40;;;;;;;20.77;12.32;;;;;;;2.26;81.37;100538.91;5001908;28;20654;-78
2023/01/30 01:56:11;;;;;;;23.08;13.07;;;;;;;2.24;81.52;100522.19;5020546;28;20233;-78
2023/01/30 01:58:46;;;;;;;17.58;11.80;;;;;;;2.23;81.40;100509.84;5000714;28;20194;-78
2023/01/30 02:01:19;;;;;;;15.05;11.00;;;;;;;2.19;82.22;100504.81;5000153;28;20265;-78
2023/01/30 02:03:54;;;;;;;20.20;13.23;;;;;;;2.06;83.47;100498.22;5000779;28;20545;-78
2023/01/30 02:06:28;;;;;;;19.27;11.50;;;;;;;1.90;85.35;100474.94;5020478;28;20240;-77
2023/01/30 02:09:02;;;;;;;14.60;10.20;;;;;;;1.92;86.53;100467.63;5003493;28;20612;-79
2023/01/30 02:11:40;;;;;;;20.95;13.30;;;;;;;1.90;88.19;100466.94;5004295;28;20579;-78
2023/01/30 02:14:12;;;;;;;22.50;14.05;;;;;;;1.89;88.68;100453.75;5003489;28;20210;-78
2023/01/30 02:16:43;;;;;;;22.75;13.90;;;;;;;1.92;89.57;100446.28;5003199;28;20649;-78
2023/01/30 02:23:31;;;;;;;22.13;15.05;;;;;;;1.94;89.38;100417.59;5000676;28;20190;-77
2023/01/30 02:26:37;;;;;;;22.80;11.88;;;;;;;1.89;89.13;100411.88;5001265;28;20210;-78
2023/01/30 02:29:58;;;;;;;21.30;11.85;;;;;;;2.02;89.36;100411.47;5000800;28;20202;-79
2023/01/30 02:32:34;;;;;;;20.05;12.50;;;;;;;2.10;88.92;100407.00;4985351;28;20191;-77
2023/01/30 02:35:15;;;;;;;22.63;13.88;;;;;;;2.13;88.92;100396.00;4981920;28;20218;-78
2023/01/30 02:37:55;;;;;;;24.60;13.60;;;;;;;2.09;89.71;100399.97;5000345;28;20191;-78
2023/01/30 02:40:39;;;;;;;22.60;14.02;;;;;;;2.12;90.54;100398.84;4983879;28;20190;-78
2023/01/30 02:43:19;;;;;;;21.02;12.40;;;;;;;1.91;92.69;100380.56;4984303;28;20191;-77
2023/01/30 02:45:54;;;;;;;19.15;13.65;;;;;;;1.83;93.28;100371.69;4982967;28;20623;-77
2023/01/30 02:48:34;;;;;;;30.38;15.50;;;;;;;1.84;94.17;100371.50;4986500;28;20195;-78
2023/01/30 02:51:09;;;;;;;20.63;12.73;;;;;;;1.78;94.46;100364.16;5012059;28;20195;-78
2023/01/30 02:53:39;;;;;;;20.00;12.95;;;;;;;1.90;94.74;100362.88;4997912;28;20194;-78
2023/01/30 02:56:09;;;;;;;21.23;14.73;;;;;;;1.88;94.71;100359.53;4997545;28;20186;-78
2023/01/30 02:58:45;;;;;;;19.02;12.57;;;;;;;1.91;94.73;100345.88;4996042;28;20194;-77
2023/01/30 03:02:10;;;;;;;23.75;14.05;;;;;;;2.02;94.13;100340.25;4998683;28;20198;-77
2023/01/30 03:04:59;;;;;;;26.45;15.07;;;;;;;1.94;93.78;100329.53;4948801;29;20746;-77
2023/01/30 03:07:44;;;;;;;19.30;13.20;;;;;;;1.96;93.97;100327.53;4944152;29;20342;-78
2023/01/30 03:10:29;;;;;;;28.90;15.90;;;;;;;2.00;93.09;100315.56;4978301;28;20199;-77
2023/01/30 03:13:15;;;;;;;24.17;15.52;;;;;;;2.07;92.74;100307.75;4983922;28;20565;-78
2023/01/30 03:15:51;;;;;;;21.10;13.15;;;;;;;2.10;91.95;100316.25;5000778;28;20199;-78
2023/01/30 03:18:21;;;;;;;27.38;13.93;;;;;;;2.12;91.96;100308.94;4985776;28;20198;-79
2023/01/30 03:20:55;;;;;;;18.55;13.32;;;;;;;2.13;91.60;100299.91;4985576;28;20222;-78
2023/01/30 03:23:25;;;;;;;19.98;12.48;;;;;;;2.14;91.56;100296.25;5002762;28;20749;-76
2023/01/30 03:25:55;;;;;;;22.42;15.45;;;;;;;2.18;91.15;100297.59;5015068;28;20217;-78
2023/01/30 03:28:26;;;;;;;24.38;13.07;;;;;;;2.33;91.00;100308.47;5000336;28;20191;-77
2023/01/30 03:30:59;;;;;;;22.02;12.98;;;;;;;2.32;90.72;100287.28;4998515;28;20189;-77
2023/01/30 03:33:30;;;;;;;26.15;14.48;;;;;;;2.40;90.35;100285.47;4999816;28;20339;-77
2023/01/30 03:36:01;;;;;;;23.08;13.80;;;;;;;2.39;90.36;100297.16;5013830;28;20288;-77
2023/01/30 03:38:32;;;;;;;21.42;13.90;;;;;;;2.40;90.12;100290.81;5020268;28;20256;-77
2023/01/30 03:41:03;;;;;;;17.13;12.57;;;;;;;2.41;89.89;100280.97;5036167;28;20173;-78
2023/01/30 03:43:34;;;;;;;22.45;14.20;;;;;;;2.42;89.87;100279.97;5018176;28;20182;-77
2023/01/30 03:46:06;;;;;;;20.13;13.43;;;;;;;2.45;90.70;100277.81;5018506;28;20210;-78
2023/01/30 03:48:39;;;;;;;22.13;12.80;;;;;;;2.57;90.33;100264.94;5019483;28;20692;-78
2023/01/30 03:51:14;;;;;;;25.25;11.35;;;;;;;2.49;91.30;100257.78;5020166;28;20189;-77
2023/01/30 03:53:44;;;;;;;19.80;12.07;;;;;;;2.49;91.42;100248.91;5022054;28;20193;-78
2023/01/30 03:56:14;;;;;;;25.45;15.32;;;;;;;2.51;91.56;100245.09;5022781;28;20197;-78
2023/01/30 03:58:45;;;;;;;23.55;13.00;;;;;;;2.62;91.48;100241.25;5023682;28;20192;-79
2023/01/30 04:01:21;;;;;;;18.95;12.68;;;;;;;2.67;91.40;100241.56;5025302;28;20189;-78
2023/01/30 04:03:54;;;;;;;18.15;11.05;;;;;;;2.58;91.74;100237.22;5023070;28;20284;-77
2023/01/30 04:06:25;;;;;;;17.55;11.35;;;;;;;2.61;91.82;100219.03;5037657;28;20193;-77
2023/01/30 04:08:56;;;;;;;21.15;13.27;;;;;;;2.72;91.32;100215.19;5040741;28;20204;-76
2023/01/30 04:11:53;;;;;;;17.60;12.00;;;;;;;2.72;90.93;100215.19;5035180;28;20213;-77
2023/01/30 04:14:24;;;;;;;21.00;12.60;;;;;;;2.77;90.21;100195.97;5019630;28;20210;-76
2023/01/30 04:17:13;;;;;;;22.70;15.77;;;;;;;2.74;90.33;100197.16;5037222;28;20181;-77
2023/01/30 04:20:08;;;;;;;22.65;12.73;;;;;;;2.76;89.83;100197.81;5020235;28;20194;-78
2023/01/30 04:22:42;;;;;;;23.80;13.10;;;;;;;2.85;89.50;100204.00;5004184;28;20194;-77
2023/01/30 04:25:15;;;;;;;20.95;13.63;;;;;;;2.88;89.24;100192.97;5001617;28;20267;-78
2023/01/30 04:27:50;;;;;;;20.05;13.52;;;;;;;2.86;88.85;100195.81;5032601;28;20220;-77
2023/01/30 04:30:25;;;;;;;17.42;13.63;;;;;;;2.85;88.61;100187.97;4998406;28;20198;-79
2023/01/30 04:33:07;;;;;;;19.10;12.90;;;;;;;2.98;88.86;100188.28;4998552;28;20193;-78
2023/01/30 04:35:41;;;;;;;20.60;13.10;;;;;;;3.01;88.56;100182.56;4997663;28;20238;-79
2023/01/30 04:38:12;;;;;;;18.25;12.32;;;;;;;3.00;88.33;100176.41;5015538;28;20572;-76
2023/01/30 04:40:42;;;;;;;17.25;10.73;;;;;;;3.04;88.37;100177.75;4997477;28;20634;-76
2023/01/30 04:43:16;;;;;;;23.05;14.32;;;;;;;3.04;88.28;100175.06;4998767;28;20240;-79
2023/01/30 04:46:07;;;;;;;19.65;11.80;;;;;;;3.06;89.28;100174.88;5002616;28;20197;-77
2023/01/30 04:48:38;;;;;;;19.70;12.82;;;;;;;3.00;89.77;100175.59;4999436;28;20210;-76
2023/01/30 04:51:08;;;;;;;21.70;14.57;;;;;;;2.96;91.00;100159.03;4999092;28;20186;-78
2023/01/30 04:53:41;;;;;;;20.42;11.98;;;;;;;2.79;91.83;100161.94;5032127;28;20194;-78
2023/01/30 04:56:12;;;;;;;19.08;11.77;;;;;;;2.80;92.51;100164.44;5000131;28;20189;-78
2023/01/30 04:58:42;;;;;;;19.92;15.02;;;;;;;2.91;93.17;100158.72;5000605;28;20186;-78
2023/01/30 05:01:19;;;;;;;28.80;14.30;;;;;;;2.85;93.87;100146.06;5018193;28;20166;-77
2023/01/30 05:03:53;;;;;;;21.90;14.52;;;;;;;2.78;94.07;100149.56;5010757;28;20178;-77
2023/01/30 05:06:23;;;;;;;21.63;14.23;;;;;;;2.71;95.27;100146.72;5032908;28;20244;-77
2023/01/30 05:08:56;;;;;;;21.67;13.80;;;;;;;2.71;96.65;100138.72;5048443;28;20218;-78
2023/01/30 05:11:28;;;;;;;23.33;13.90;;;;;;;2.60;97.26;100141.75;5037060;28;20281;-78
2023/01/30 05:14:00;;;;;;;21.38;13.25;;;;;;;2.63;98.11;100138.75;5040220;28;20177;-78
2023/01/30 05:16:34;;;;;;;26.10;14.55;;;;;;;2.58;98.96;100133.91;5037205;28;20180;-77
2023/01/30 05:19:04;;;;;;;27.13;14.30;;;;;;;2.49;99.58;100120.72;5037950;28;20587;-77
2023/01/30 05:21:34;;;;;;;25.35;17.17;;;;;;;2.49;100.00;100134.09;5020857;28;20671;-78
2023/01/30 05:24:07;;;;;;;24.45;15.30;;;;;;;2.44;100.00;100123.06;5023224;28;20213;-77
2023/01/30 05:26:37;;;;;;;22.60;14.60;;;;;;;2.45;100.00;100114.91;5046733;28;20174;-77
2023/01/30 05:29:07;;;;;;;26.77;15.40;;;;;;;2.49;100.00;100108.22;5044296;28;20193;-78
2023/01/30 05:31:38;;;;;;;25.75;15.63;;;;;;;2.55;100.00;100101.38;5026690;28;20189;-77
2023/01/30 05:34:10;;;;;;;24.88;15.82;;;;;;;2.59;100.00;100092.84;5046178;28;20205;-77
2023/01/30 05:36:43;;;;;;;31.25;15.75;;;;;;;2.54;100.00;100100.53;5049433;28;20193;-78
2023/01/30 05:39:15;;;;;;;26.63;14.95;;;;;;;2.50;100.00;100099.22;5050264;28;20177;-77
2023/01/30 05:41:44;;;;;;;26.58;14.65;;;;;;;2.53;100.00;100077.50;5034110;28;20189;-78
2023/01/30 05:44:14;;;;;;;26.67;14.93;;;;;;;2.50;100.00;100080.50;5053056;28;20205;-79
2023/01/30 05:46:44;;;;;;;23.88;15.48;;;;;;;2.54;100.00;100073.00;5054690;28;20188;-77
2023/01/30 05:49:14;;;;;;;26.55;16.75;;;;;;;2.66;100.00;100060.13;5055808;28;20343;-77
2023/01/30 05:51:44;;;;;;;28.70;14.15;;;;;;;2.69;100.00;100055.25;5055834;28;20177;-76
2023/01/30 05:54:15;;;;;;;25.02;15.80;;;;;;;2.64;100.00;100062.94;5055190;28;20209;-77
2023/01/30 05:56:50;;;;;;;27.77;15.35;;;;;;;2.60;100.00;100050.94;5056285;28;20173;-77
2023/01/30 05:59:20;;;;;;;20.98;13.50;;;;;;;2.66;100.00;100060.94;5054146;28;20174;-78
2023/01/30 06:01:49;;;;;;;28.52;17.88;;;;;;;2.72;100.00;100048.72;5036387;28;20186;-77
2023/01/30 06:04:19;;;;;;;20.77;14.25;;;;;;;2.68;100.00;100048.25;5054872;28;20240;-76
2023/01/30 06:06:50;;;;;;;26.70;17.33;;;;;;;2.80;100.00;100051.38;5055217;28;20313;-77
2023/01/30 06:09:22;;;;;;;23.85;14.75;;;;;;;2.86;100.00;100059.53;5036984;28;20221;-77
2023/01/30 06:11:54;;;;;;;21.50;13.25;;;;;;;2.82;100.00;100044.84;5053963;28;20268;-77
2023/01/30 06:14:24;;;;;;;21.85;13.82;;;;;;;2.89;100.00;100055.69;5052659;28;20205;-77
2023/01/30 06:16:56;;;;;;;25.15;14.98;;;;;;;2.93;100.00;100041.81;5048567;28;20174;-78
2023/01/30 06:19:26;;;;;;;27.08;15.35;;;;;;;2.88;100.00;100038.81;5043557;28;20239;-78
2023/01/30 06:21:56;;;;;;;20.60;14.65;;;;;;;3.03;100.00;100045.09;5043496;28;20249;-79
2023/01/30 06:24:27;;;;;;;22.00;14.30;;;;;;;3.01;100.00;100046.25;5043237;28;20212;-79
2023/01/30 06:26:56;;;;;;;29.15;15.43;;;;;;;3.13;100.00;100046.72;5027081;28;20185;-79
2023/01/30 06:29:26;;;;;;;19.73;13.18;;;;;;;2.97;100.00;100037.78;5043343;28;20213;-78
2023/01/30 06:31:55;;;;;;;26.50;14.20;;;;;;;3.14;100.00;100043.88;5027518;28;20296;-78
2023/01/30 06:34:25;;;;;;;29.17;15.40;;;;;;;3.13;100.00;100039.53;5046396;28;20216;-80
2023/01/30 06:36:55;;;;;;;23.83;13.40;;;;;;;3.16;100.00;100051.72;5048445;28;20201;-78
2023/01/30 06:39:26;;;;;;;26.15;13.48;;;;;;;3.23;100.00;100047.34;5042787;28;20181;-78
2023/01/30 06:41:56;;;;;;;23.75;13.77;;;;;;;3.28;100.00;100047.66;5045607;28;20232;-78
2023/01/30 06:44:25;;;;;;;21.42;13.98;;;;;;;3.26;100.00;100052.31;5046326;28;20205;-78
2023/01/30 06:46:57;;;;;;;20.00;12.70;;;;;;;3.40;100.00;100046.22;5025535;28;20208;-78
2023/01/30 06:49:27;;;;;;;24.45;14.50;;;;;;;3.41;100.00;100045.22;5050075;28;20200;-77
2023/01/30 06:51:57;;;;;;;22.17;13.27;;;;;;;3.43;100.00;100043.22;5049203;28;20216;-78
2023/01/30 06:54:28;;;;;;;27.30;14.45;;;;;;;3.49;100.00;100026.44;5029851;28;20408;-77
2023/01/30 06:57:00;;;;;;;32.50;13.95;;;;;;;3.53;100.00;100033.13;5048748;28;20186;-77
2023/01/30 06:59:30;;;;;;;21.58;13.55;;;;;;;3.50;100.00;100028.13;5047500;28;20550;-77
2023/01/30 07:01:59;;;;;;;24.80;12.95;;;;;;;3.52;100.00;100015.41;5043204;28;20216;-78
2023/01/30 07:04:29;;;;;;;19.33;13.10;;;;;;;3.58;100.00;100017.38;5042288;28;20586;-79
2023/01/30 07:11:56;;;;;;;19.00;10.95;;;;;;;3.70;100.00;100018.59;4941512;29;20482;-77
2023/01/30 07:14:26;;;;;;;18.02;12.18;;;;;;;3.70;100.00;100015.09;4973708;28;20222;-79
2023/01/30 07:16:56;;;;;;;15.40;10.00;;;;;;;3.69;100.00;100011.59;5033325;28;20194;-78
2023/01/30 07:19:25;;;;;;;19.48;11.35;;;;;;;3.72;100.00;100010.41;5020090;28;20177;-78
2023/01/30 07:21:55;;;;;;;15.85;11.60;;;;;;;3.77;100.00;100008.03;5011125;28;20198;-77
2023/01/30 07:24:24;;;;;;;16.73;11.00;;;;;;;3.85;100.00;100006.09;5003119;28;20724;-78
2023/01/30 07:26:56;;;;;;;12.73;9.90;;;;;;;3.88;100.00;100002.22;5002310;28;20187;-78
2023/01/30 07:29:25;;;;;;;12.27;8.10;;;;;;;3.89;100.00;100002.06;5002348;28;20203;-80
2023/01/30 07:31:55;;;;;;;15.77;10.57;;;;;;;3.94;100.00;99998.84;5041706;28;20186;-78
2023/01/30 07:34:24;;;;;;;15.20;10.43;;;;;;;3.96;100.00;99999.50;5042550;28;20209;-79
2023/01/30 07:36:54;;;;;;;13.77;8.93;;;;;;;4.06;100.00;100002.75;5043227;28;20201;-79
2023/01/30 07:39:23;;;;;;;12.43;9.38;;;;;;;4.09;100.00;100001.53;5026016;28;20193;-79
2023/01/30 07:41:53;;;;;;;16.83;10.20;;;;;;;4.13;100.00;99994.81;5041831;28;20578;-77
2023/01/30 07:44:27;;;;;;;13.13;10.40;;;;;;;4.14;100.00;100008.03;5043971;28;20227;-79
2023/01/30 07:46:57;;;;;;;17.52;8.73;;;;;;;4.08;100.00;100008.75;5049295;28;20185;-79
2023/01/30 07:49:27;;;;;;;13.55;8.60;;;;;;;4.17;100.00;100012.16;5046812;28;20209;-81
2023/01/30 07:51:56;;;;;;;12.13;7.53;;;;;;;4.18;100.00;100016.50;5046780;28;20193;-76
2023/01/30 07:54:26;;;;;;;14.95;8.80;;;;;;;4.18;100.00;100013.84;5031645;28;20218;-79
2023/01/30 07:56:55;;;;;;;14.90;8.52;;;;;;;4.19;100.00;100008.31;5052902;28;20189;-78
2023/01/30 07:59:26;;;;;;;13.60;8.05;;;;;;;4.43;100.00;100031.31;5051797;28;20205;-78
2023/01/30 08:01:57;;;;;;;16.73;7.85;;;;;;;4.33;100.00;100034.28;5031167;28;20174;-78
2023/01/30 08:04:27;;;;;;;10.25;7.82;;;;;;;4.35;100.00;100032.25;5049088;28;20233;-78
2023/01/30 08:06:56;;;;;;;10.93;7.47;;;;;;;4.29;100.00;100030.31;5042449;28;20603;-80
2023/01/30 08:09:25;;;;;;;9.75;6.82;;;;;;;4.29;100.00;100024.09;5023851;28;20209;-77
2023/01/30 08:11:55;;;;;;;11.65;7.22;;;;;;;4.29;100.00;100024.09;5022922;28;20231;-80
2023/01/30 08:14:27;;;;;;;11.27;7.68;;;;;;;4.35;100.00;100020.72;5024697;28;20220;-78
2023/01/30 08:16:57;;;;;;;14.18;9.07;;;;;;;4.31;100.00;100016.69;5042815;28;20523;-78
2023/01/30 08:19:29;;;;;;;11.98;8.02;;;;;;;4.38;100.00;100020.31;5045067;28;20185;-76
2023/01/30 08:22:00;;;;;;;10.52;7.32;;;;;;;4.36;100.00;100001.75;5031989;28;20212;-77
2023/01/30 08:24:32;;;;;;;11.48;7.22;;;;;;;4.40;100.00;100009.44;5034884;28;20240;-77
2023/01/30 08:27:02;;;;;;;14.85;8.40;;;;;;;4.42;100.00;99997.50;5052076;28;20173;-77
2023/01/30 08:29:33;;;;;;;8.73;6.15;;;;;;;4.46;100.00;99990.75;5042605;28;20237;-78
2023/01/30 08:32:02;;;;;;;10.40;6.78;;;;;;;4.51;100.00;99991.03;5041154;28;20182;-78
2023/01/30 08:34:32;;;;;;;11.23;8.45;;;;;;;4.64;100.00;100001.97;5035283;28;20240;-77
2023/01/30 08:37:01;;;;;;;12.10;7.78;;;;;;;4.53;100.00;100007.78;5001762;28;20206;-79
2023/01/30 08:39:31;;;;;;;11.55;6.40;;;;;;;4.61;100.00;100018.41;5003824;28;20217;-78
2023/01/30 08:57:35;;;;;;;10.02;6.88;;;;;;;4.76;100.00;100011.19;5042875;28;20609;-77
2023/01/30 09:00:05;;;;;;;8.52;4.93;;;;;;;4.77;100.00;100002.13;5040926;28;20259;-77
2023/01/30 09:02:35;;;;;;;16.88;6.10;;;;;;;4.76;100.00;100018.38;5051845;28;20217;-78
2023/01/30 09:05:05;;;;;;;8.95;5.50;;;;;;;4.80;100.00;100012.47;5053068;28;20204;-77
2023/01/30 09:07:35;;;;;;;7.38;4.38;;;;;;;4.75;100.00;100008.69;5053845;28;20174;-78
2023/01/30 09:10:07;;;;;;;9.93;5.57;;;;;;;4.83;100.00;100003.25;5042169;28;20211;-79
2023/01/30 09:12:36;;;;;;;10.35;5.72;;;;;;;5.03;100.00;100012.38;5040564;28;20212;-78
2023/01/30 09:15:07;;;;;;;7.50;5.43;;;;;;;5.04;100.00;100018.53;5030921;28;20213;-78
2023/01/30 09:17:36;;;;;;;6.60;4.70;;;;;;;5.12;100.00;100005.88;5057621;28;20225;-77
2023/01/30 09:20:07;;;;;;;6.10;4.32;;;;;;;5.36;100.00;100020.78;5055471;28;20181;-78
2023/01/30 09:22:36;;;;;;;6.22;4.35;;;;;;;5.46;100.00;100024.00;5051615;28;20197;-78
2023/01/30 09:25:08;;;;;;;8.18;5.20;;;;;;;5.48;99.57;100027.31;5059503;28;20189;-77
2023/01/30 09:27:38;;;;;;;6.40;4.25;;;;;;;5.56;99.74;100027.22;5044205;28;20197;-76
2023/01/30 09:30:09;;;;;;;7.07;3.58;;;;;;;5.63;99.50;100013.84;5061260;28;20204;-77
2023/01/30 09:32:39;;;;;;;6.25;4.13;;;;;;;5.73;99.13;100022.41;5043364;28;20181;-79
2023/01/30 09:35:08;;;;;;;4.13;3.10;;;;;;;5.69;97.98;100023.81;5042807;28;20210;-78
2023/01/30 09:37:46;;;;;;;4.85;3.78;;;;;;;5.50;98.19;100022.59;5061046;28;20173;-77
2023/01/30 09:40:32;;;;;;;4.93;2.95;;;;;;;5.52;98.41;100023.22;5056350;28;20177;-78
2023/01/30 09:43:29;;;;;;;7.72;2.70;;;;;;;5.52;97.70;100022.38;5041105;28;20150;-77
2023/01/30 09:46:18;;;;;;;5.32;2.92;;;;;;;5.81;98.01;100024.13;5024128;28;20225;-78
2023/01/30 09:49:16;;;;;;;3.95;2.42;;;;;;;5.88;96.25;100019.69;5041115;28;20162;-77
2023/01/30 09:52:13;;;;;;;3.88;2.17;;;;;;;5.93;95.68;100014.56;5020724;28;20243;-78
2023/01/30 09:57:49;;;;;;;7.72;1.77;;;;;;;5.95;95.02;100017.91;5020846;28;20190;-78
2023/01/30 10:00:27;;;;;;;8.43;2.78;;;;;;;6.00;94.04;100016.25;5023881;28;20202;-77
2023/01/30 10:03:07;;;;;;;8.25;3.38;;;;;;;5.88;94.07;100014.31;5039388;28;20151;-79
2023/01/30 10:05:43;;;;;;;7.13;2.97;;;;;;;5.82;94.80;100007.81;5022088;28;20229;-78
2023/01/30 10:08:40;;;;;;;2.50;1.85;;;;;;;5.79;93.10;100015.44;5020031;28;20185;-77
2023/01/30 10:11:25;;;;;;;3.25;1.80;;;;;;;5.90;94.06;100021.16;5007452;28;20225;-78
2023/01/30 10:14:21;;;;;;;2.45;1.77;;;;;;;6.04;92.75;100001.44;4999549;28;20641;-76
2023/01/30 10:17:03;;;;;;;4.82;1.88;;;;;;;6.15;90.70;100020.75;5018909;28;20197;-77
2023/01/30 10:19:57;;;;;;;8.60;2.80;;;;;;;6.30;87.65;100016.91;5018660;28;20282;-78
2023/01/30 10:22:41;;;;;;;5.80;1.92;;;;;;;6.25;86.68;100019.34;5020547;28;20190;-78
2023/01/30 10:25:27;;;;;;;3.47;1.70;;;;;;;6.36;86.87;100021.50;5022714;28;20217;-79
2023/01/30 10:28:05;;;;;;;6.18;2.17;;;;;;;6.27;85.62;100022.69;5028881;28;20225;-77
2023/01/30 10:30:38;;;;;;;6.07;1.90;;;;;;;6.23;86.54;100020.59;5021986;28;20197;-77
2023/01/30 10:33:18;;;;;;;7.43;2.38;;;;;;;6.25;85.98;100019.34;5020590;28;20212;-78
2023/01/30 10:35:57;;;;;;;11.77;4.20;;;;;;;6.18;84.76;100013.13;5022177;28;20235;-78
2023/01/30 10:38:36;;;;;;;5.97;2.60;;;;;;;6.22;84.08;100008.19;5024139;28;20208;-79
2023/01/30 10:41:20;;;;;;;10.15;2.30;;;;;;;6.39;84.39;100005.00;5022814;28;20192;-78
2023/01/30 10:43:59;;;;;;;17.02;3.92;;;;;;;6.54;82.54;100000.34;5029889;28;20248;-77
2023/01/30 10:46:49;;;;;;;4.90;1.80;;;;;;;6.54;80.89;100002.19;4999961;28;20551;-78
2023/01/30 10:49:29;;;;;;;8.40;2.58;;;;;;;6.48;81.51;100019.13;5000078;28;20623;-78
2023/01/30 10:52:07;;;;;;;6.38;2.55;;;;;;;6.33;80.23;99995.06;5017593;28;20198;-78
2023/01/30 10:54:41;;;;;;;6.95;2.65;;;;;;;6.27;81.51;99987.75;5034389;28;20218;-77
2023/01/30 10:57:25;;;;;;;16.92;1.85;;;;;;;6.29;81.33;99992.94;5049137;28;20166;-79
2023/01/30 11:00:02;;;;;;;11.65;3.17;;;;;;;6.16;80.90;100004.41;5033216;28;20194;-77
2023/01/30 11:02:41;;;;;;;17.45;2.83;;;;;;;6.14;80.56;99987.69;5050192;28;20197;-80
2023/01/30 11:05:16;;;;;;;5.40;2.70;;;;;;;6.18;80.50;99980.06;5043473;28;20205;-77
2023/01/30 11:07:48;;;;;;;6.80;2.63;;;;;;;6.13;80.42;99977.97;5043251;28;20176;-77
2023/01/30 11:10:20;;;;;;;16.38;2.88;;;;;;;6.22;79.70;99978.63;5042324;28;20188;-80
2023/01/30 11:12:53;;;;;;;12.30;3.53;;;;;;;6.26;79.80;99978.03;5026782;28;20200;-80
2023/01/30 11:15:24;;;;;;;10.98;2.00;;;;;;;6.31;79.77;99961.31;5042287;28;20212;-78
2023/01/30 11:18:05;;;;;;;12.77;2.20;;;;;;;6.50;79.60;99937.25;5038447;28;20194;-80
2023/01/30 11:21:04;;;;;;;11.73;2.85;;;;;;;6.70;78.17;99950.78;5041243;28;20177;-79
2023/01/30 11:23:36;;;;;;;4.97;2.42;;;;;;;6.62;76.85;99942.91;5038188;28;20280;-78
2023/01/30 11:26:25;;;;;;;11.38;3.10;;;;;;;6.75;76.56;99939.44;5037221;28;20220;-79
2023/01/30 11:29:24;;;;;;;22.40;3.50;;;;;;;6.79;76.88;99944.22;5022807;28;20197;-77
2023/01/30 11:32:05;;;;;;;8.95;3.15;;;;;;;6.87;77.02;99924.41;5043108;28;20193;-78
2023/01/30 11:35:10;;;;;;;11.45;3.22;;;;;;;6.90;76.95;99924.00;5040865;28;20250;-79
2023/01/30 11:37:53;;;;;;;11.38;1.70;;;;;;;6.50;77.64;99922.97;5040135;28;20224;-78
2023/01/30 11:40:31;;;;;;;13.07;3.58;;;;;;;6.46;78.69;99919.88;5039809;28;20173;-78
2023/01/30 11:43:26;;;;;;;14.70;4.10;;;;;;;6.59;79.39;99910.19;5057283;28;20200;-77
2023/01/30 11:46:02;;;;;;;10.82;3.13;;;;;;;6.48;78.55;99908.94;5037178;28;20232;-78
2023/01/30 11:48:53;;;;;;;12.88;3.25;;;;;;;6.62;78.86;99915.19;5023474;28;20197;-78
2023/01/30 11:52:15;;;;;;;12.82;5.55;;;;;;;6.75;77.45;99913.38;5023330;28;20236;-79
2023/01/30 11:54:48;;;;;;;13.52;3.03;;;;;;;6.55;76.67;99907.91;5043513;28;20259;-78
2023/01/30 11:57:32;;;;;;;11.45;2.50;;;;;;;6.32;77.92;99939.66;5038959;28;20166;-78
2023/01/30 12:00:20;;;;;;;6.28;2.00;;;;;;;5.69;82.51;99927.19;5004414;28;20213;-78
2023/01/30 12:03:02;;;;;;;7.97;2.58;;;;;;;5.52;85.51;99926.59;5003021;28;20186;-78
2023/01/30 12:05:47;;;;;;;4.50;2.05;;;;;;;5.33;87.23;99904.97;5024824;28;20209;-78
2023/01/30 12:08:48;;;;;;;4.93;1.77;;;;;;;5.25;88.76;99897.88;5024227;28;20189;-79
2023/01/30 12:11:41;;;;;;;8.52;1.50;;;;;;;4.98;91.38;99904.03;5023650;28;20197;-79
2023/01/30 12:14:35;;;;;;;11.32;2.58;;;;;;;4.97;92.59;99894.31;5004337;28;20210;-77
2023/01/30 12:17:50;;;;;;;9.32;3.92;;;;;;;5.33;92.71;99905.78;5021335;28;20264;-79
2023/01/30 12:20:49;;;;;;;6.95;3.72;;;;;;;5.61;89.45;99895.13;5003453;28;20210;-79
2023/01/30 12:23:37;;;;;;;4.35;2.80;;;;;;;5.69;88.77;99892.28;5021299;28;20196;-79
2023/01/30 12:26:24;;;;;;;9.05;3.15;;;;;;;5.84;88.24;99881.44;5018891;28;20190;-78
2023/01/30 12:29:03;;;;;;;7.50;2.50;;;;;;;6.08;86.95;99878.34;5003172;28;20182;-79
2023/01/30 12:31:57;;;;;;;6.82;2.50;;;;;;;6.29;86.01;99880.09;5048013;28;20265;-79
2023/01/30 12:34:41;;;;;;;13.07;2.50;;;;;;;6.23;84.35;99870.97;5039978;28;20273;-77
2023/01/30 12:37:41;;;;;;;7.38;2.75;;;;;;;6.58;83.90;99865.56;5022164;28;20216;-79